sensor_id;sensor_type;location;lat;lon;timestamp;P1;durP1;ratioP1;P2;durP2;ratioP2
61435;SDS011;47304;47.456;19.160;2023-06-01T00:02:01;21.60;;;7.10;;
61435;SDS011;47304;47.456;19.160;2023-06-01T00:04:27;21.50;;;6.50;;
61435;SDS011;47304;47.456;19.160;2023-06-01T00:06:54;23.60;;;7.40;;
61435;SDS011;47304;47.456;19.160;2023-06-01T00:09:21;17.70;;;7.30;;
61435;SDS011;47304;47.456;19.160;2023-06-01T00:11:47;19.10;;;7.00;;
61435;SDS011;47304;47.456;19.160;2023-06-01T00:14:14;18.00;;;8.50;;
61435;SDS011;47304;47.456;19.160;2023-06-01T00:16:40;22.60;;;7.00;;
61435;SDS011;47304;47.456;19.160;2023-06-01T00:19:07;18.00;;;6.60;;
61435;SDS011;47304;47.456;19.160;2023-06-01T00:21:33;21.60;;;7.40;;
61435;SDS011;47304;47.456;19.160;2023-06-01T00:24:00;22.90;;;7.50;;
61435;SDS011;47304;47.456;19.160;2023-06-01T00:26:28;18.60;;;6.90;;
61435;SDS011;47304;47.456;19.160;2023-06-01T00:28:55;19.80;;;7.10;;
61435;SDS011;47304;47.456;19.160;2023-06-01T00:31:21;16.70;;;7.00;;
61435;SDS011;47304;47.456;19.160;2023-06-01T00:33:48;18.00;;;7.60;;
61435;SDS011;47304;47.456;19.160;2023-06-01T00:36:14;17.70;;;7.80;;
61435;SDS011;47304;47.456;19.160;2023-06-01T00:38:41;20.00;;;6.90;;
61435;SDS011;47304;47.456;19.160;2023-06-01T00:41:07;18.60;;;6.40;;
61435;SDS011;47304;47.456;19.160;2023-06-01T00:43:34;19.50;;;7.80;;
61435;SDS011;47304;47.456;19.160;2023-06-01T00:46:00;21.10;;;7.50;;
61435;SDS011;47304;47.456;19.160;2023-06-01T00:48:27;15.40;;;6.80;;
61435;SDS011;47304;47.456;19.160;2023-06-01T00:50:54;19.00;;;6.70;;
61435;SDS011;47304;47.456;19.160;2023-06-01T00:53:20;16.40;;;6.80;;
61435;SDS011;47304;47.456;19.160;2023-06-01T00:55:47;15.70;;;6.70;;
61435;SDS011;47304;47.456;19.160;2023-06-01T00:58:13;15.70;;;7.10;;
61435;SDS011;47304;47.456;19.160;2023-06-01T01:00:41;15.20;;;6.50;;
61435;SDS011;47304;47.456;19.160;2023-06-01T01:03:08;15.80;;;7.20;;
61435;SDS011;47304;47.456;19.160;2023-06-01T01:05:36;19.70;;;8.20;;
61435;SDS011;47304;47.456;19.160;2023-06-01T01:08:22;15.80;;;7.20;;
61435;SDS011;47304;47.456;19.160;2023-06-01T01:11:14;19.30;;;7.10;;
61435;SDS011;47304;47.456;19.160;2023-06-01T01:13:56;15.40;;;6.70;;
61435;SDS011;47304;47.456;19.160;2023-06-01T01:16:28;18.80;;;6.90;;
61435;SDS011;47304;47.456;19.160;2023-06-01T01:22:07;15.50;;;6.10;;
61435;SDS011;47304;47.456;19.160;2023-06-01T01:30:30;19.10;;;7.00;;
61435;SDS011;47304;47.456;19.160;2023-06-01T01:32:58;16.70;;;8.00;;
61435;SDS011;47304;47.456;19.160;2023-06-01T01:35:26;16.70;;;7.30;;
61435;SDS011;47304;47.456;19.160;2023-06-01T01:37:53;16.00;;;6.90;;
61435;SDS011;47304;47.456;19.160;2023-06-01T01:40:20;18.60;;;7.20;;
61435;SDS011;47304;47.456;19.160;2023-06-01T01:42:47;16.50;;;6.80;;
61435;SDS011;47304;47.456;19.160;2023-06-01T01:45:16;15.50;;;7.20;;
61435;SDS011;47304;47.456;19.160;2023-06-01T01:47:51;17.00;;;7.50;;
61435;SDS011;47304;47.456;19.160;2023-06-01T01:50:26;14.30;;;7.00;;
61435;SDS011;47304;47.456;19.160;2023-06-01T01:52:55;15.10;;;7.40;;
61435;SDS011;47304;47.456;19.160;2023-06-01T01:55:23;15.20;;;7.10;;
61435;SDS011;47304;47.456;19.160;2023-06-01T01:57:52;15.60;;;7.40;;
61435;SDS011;47304;47.456;19.160;2023-06-01T02:00:21;15.90;;;7.40;;
61435;SDS011;47304;47.456;19.160;2023-06-01T02:02:48;16.70;;;7.20;;
61435;SDS011;47304;47.456;19.160;2023-06-01T02:05:15;15.50;;;8.10;;
61435;SDS011;47304;47.456;19.160;2023-06-01T02:07:41;13.40;;;7.50;;
61435;SDS011;47304;47.456;19.160;2023-06-01T02:10:08;18.00;;;8.80;;
61435;SDS011;47304;47.456;19.160;2023-06-01T02:12:35;14.70;;;7.80;;
61435;SDS011;47304;47.456;19.160;2023-06-01T02:15:01;14.60;;;7.90;;
61435;SDS011;47304;47.456;19.160;2023-06-01T02:17:28;14.60;;;7.80;;
61435;SDS011;47304;47.456;19.160;2023-06-01T02:19:55;14.30;;;8.50;;
61435;SDS011;47304;47.456;19.160;2023-06-01T02:22:21;16.20;;;7.90;;
61435;SDS011;47304;47.456;19.160;2023-06-01T02:24:48;15.70;;;7.80;;
61435;SDS011;47304;47.456;19.160;2023-06-01T02:27:14;14.90;;;8.30;;
61435;SDS011;47304;47.456;19.160;2023-06-01T02:29:41;16.80;;;8.60;;
61435;SDS011;47304;47.456;19.160;2023-06-01T02:32:08;13.80;;;7.90;;
61435;SDS011;47304;47.456;19.160;2023-06-01T02:34:35;13.20;;;8.10;;
61435;SDS011;47304;47.456;19.160;2023-06-01T02:37:01;15.20;;;8.40;;
61435;SDS011;47304;47.456;19.160;2023-06-01T02:39:28;13.50;;;8.20;;
61435;SDS011;47304;47.456;19.160;2023-06-01T02:41:54;13.50;;;8.50;;
61435;SDS011;47304;47.456;19.160;2023-06-01T02:44:21;16.00;;;8.30;;
61435;SDS011;47304;47.456;19.160;2023-06-01T02:46:47;15.40;;;9.10;;
61435;SDS011;47304;47.456;19.160;2023-06-01T02:49:14;15.50;;;7.80;;
61435;SDS011;47304;47.456;19.160;2023-06-01T02:51:40;15.50;;;8.40;;
61435;SDS011;47304;47.456;19.160;2023-06-01T02:54:07;14.10;;;8.00;;
61435;SDS011;47304;47.456;19.160;2023-06-01T02:56:33;15.30;;;7.90;;
61435;SDS011;47304;47.456;19.160;2023-06-01T02:59:00;14.00;;;8.10;;
61435;SDS011;47304;47.456;19.160;2023-06-01T03:01:27;13.60;;;7.50;;
61435;SDS011;47304;47.456;19.160;2023-06-01T03:03:53;15.00;;;7.70;;
61435;SDS011;47304;47.456;19.160;2023-06-01T03:06:20;12.50;;;7.70;;
61435;SDS011;47304;47.456;19.160;2023-06-01T03:08:47;13.20;;;7.50;;
61435;SDS011;47304;47.456;19.160;2023-06-01T03:11:13;14.00;;;7.60;;
61435;SDS011;47304;47.456;19.160;2023-06-01T03:13:40;12.90;;;8.00;;
61435;SDS011;47304;47.456;19.160;2023-06-01T03:16:06;13.50;;;7.60;;
61435;SDS011;47304;47.456;19.160;2023-06-01T03:18:33;13.30;;;7.90;;
61435;SDS011;47304;47.456;19.160;2023-06-01T03:21:04;13.80;;;7.60;;
61435;SDS011;47304;47.456;19.160;2023-06-01T03:23:30;13.70;;;7.60;;
61435;SDS011;47304;47.456;19.160;2023-06-01T03:25:57;14.50;;;7.70;;
61435;SDS011;47304;47.456;19.160;2023-06-01T03:28:23;14.80;;;7.90;;
61435;SDS011;47304;47.456;19.160;2023-06-01T03:30:50;14.10;;;7.90;;
61435;SDS011;47304;47.456;19.160;2023-06-01T03:33:16;13.60;;;8.20;;
61435;SDS011;47304;47.456;19.160;2023-06-01T03:35:43;12.80;;;7.30;;
61435;SDS011;47304;47.456;19.160;2023-06-01T03:38:09;13.40;;;7.30;;
61435;SDS011;47304;47.456;19.160;2023-06-01T03:40:36;13.40;;;8.30;;
61435;SDS011;47304;47.456;19.160;2023-06-01T03:43:02;12.60;;;7.70;;
61435;SDS011;47304;47.456;19.160;2023-06-01T03:45:29;13.90;;;8.20;;
61435;SDS011;47304;47.456;19.160;2023-06-01T03:47:56;14.00;;;8.10;;
61435;SDS011;47304;47.456;19.160;2023-06-01T03:50:22;14.30;;;8.00;;
61435;SDS011;47304;47.456;19.160;2023-06-01T03:52:50;16.70;;;8.00;;
61435;SDS011;47304;47.456;19.160;2023-06-01T03:55:17;14.60;;;8.20;;
61435;SDS011;47304;47.456;19.160;2023-06-01T03:57:43;15.40;;;8.40;;
61435;SDS011;47304;47.456;19.160;2023-06-01T04:00:10;14.30;;;8.00;;
61435;SDS011;47304;47.456;19.160;2023-06-01T04:02:37;14.50;;;9.10;;
61435;SDS011;47304;47.456;19.160;2023-06-01T04:05:03;14.20;;;8.30;;
61435;SDS011;47304;47.456;19.160;2023-06-01T04:07:30;15.00;;;7.40;;
61435;SDS011;47304;47.456;19.160;2023-06-01T04:09:56;14.50;;;7.60;;
61435;SDS011;47304;47.456;19.160;2023-06-01T04:12:23;12.70;;;7.30;;
61435;SDS011;47304;47.456;19.160;2023-06-01T04:14:49;13.20;;;6.90;;
61435;SDS011;47304;47.456;19.160;2023-06-01T04:17:16;11.80;;;7.20;;
61435;SDS011;47304;47.456;19.160;2023-06-01T04:19:46;11.40;;;7.30;;
61435;SDS011;47304;47.456;19.160;2023-06-01T04:22:13;11.90;;;6.70;;
61435;SDS011;47304;47.456;19.160;2023-06-01T04:24:40;13.80;;;7.30;;
61435;SDS011;47304;47.456;19.160;2023-06-01T04:27:06;15.00;;;7.10;;
61435;SDS011;47304;47.456;19.160;2023-06-01T04:29:33;12.40;;;7.10;;
61435;SDS011;47304;47.456;19.160;2023-06-01T04:31:59;14.50;;;7.60;;
61435;SDS011;47304;47.456;19.160;2023-06-01T04:34:26;12.80;;;7.00;;
61435;SDS011;47304;47.456;19.160;2023-06-01T04:36:52;13.20;;;7.30;;
61435;SDS011;47304;47.456;19.160;2023-06-01T04:39:19;14.20;;;7.10;;
61435;SDS011;47304;47.456;19.160;2023-06-01T04:41:45;15.20;;;7.20;;
61435;SDS011;47304;47.456;19.160;2023-06-01T04:44:12;12.90;;;6.40;;
61435;SDS011;47304;47.456;19.160;2023-06-01T04:46:38;13.60;;;7.20;;
61435;SDS011;47304;47.456;19.160;2023-06-01T04:49:05;14.30;;;6.80;;
61435;SDS011;47304;47.456;19.160;2023-06-01T04:51:32;11.50;;;6.10;;
61435;SDS011;47304;47.456;19.160;2023-06-01T04:53:58;11.60;;;5.90;;
61435;SDS011;47304;47.456;19.160;2023-06-01T04:56:25;12.60;;;6.90;;
61435;SDS011;47304;47.456;19.160;2023-06-01T04:58:55;12.00;;;6.20;;
61435;SDS011;47304;47.456;19.160;2023-06-01T05:01:23;11.20;;;5.90;;
61435;SDS011;47304;47.456;19.160;2023-06-01T05:03:51;11.10;;;6.40;;
61435;SDS011;47304;47.456;19.160;2023-06-01T05:06:19;13.00;;;6.30;;
61435;SDS011;47304;47.456;19.160;2023-06-01T05:08:46;14.10;;;6.20;;
61435;SDS011;47304;47.456;19.160;2023-06-01T05:11:13;14.80;;;6.60;;
61435;SDS011;47304;47.456;19.160;2023-06-01T05:13:40;11.10;;;6.60;;
61435;SDS011;47304;47.456;19.160;2023-06-01T05:16:07;13.10;;;6.60;;
61435;SDS011;47304;47.456;19.160;2023-06-01T05:18:35;14.20;;;7.80;;
61435;SDS011;47304;47.456;19.160;2023-06-01T05:21:02;15.80;;;7.00;;
61435;SDS011;47304;47.456;19.160;2023-06-01T05:23:29;12.90;;;7.00;;
61435;SDS011;47304;47.456;19.160;2023-06-01T05:25:56;14.40;;;7.30;;
61435;SDS011;47304;47.456;19.160;2023-06-01T05:28:22;14.40;;;7.30;;
61435;SDS011;47304;47.456;19.160;2023-06-01T05:30:49;14.40;;;7.10;;
61435;SDS011;47304;47.456;19.160;2023-06-01T05:33:15;14.30;;;7.10;;
61435;SDS011;47304;47.456;19.160;2023-06-01T05:35:42;15.60;;;6.80;;
61435;SDS011;47304;47.456;19.160;2023-06-01T05:38:08;11.60;;;6.70;;
61435;SDS011;47304;47.456;19.160;2023-06-01T05:40:35;15.60;;;5.80;;
61435;SDS011;47304;47.456;19.160;2023-06-01T05:43:01;12.10;;;5.10;;
61435;SDS011;47304;47.456;19.160;2023-06-01T05:45:28;10.70;;;5.30;;
61435;SDS011;47304;47.456;19.160;2023-06-01T05:47:54;10.40;;;5.40;;
61435;SDS011;47304;47.456;19.160;2023-06-01T05:50:21;11.60;;;5.60;;
61435;SDS011;47304;47.456;19.160;2023-06-01T05:52:47;8.00;;;4.20;;
61435;SDS011;47304;47.456;19.160;2023-06-01T05:55:14;9.50;;;4.30;;
61435;SDS011;47304;47.456;19.160;2023-06-01T05:57:41;8.60;;;4.10;;
61435;SDS011;47304;47.456;19.160;2023-06-01T06:00:07;9.80;;;4.30;;
61435;SDS011;47304;47.456;19.160;2023-06-01T06:02:34;9.10;;;3.80;;
61435;SDS011;47304;47.456;19.160;2023-06-01T06:05:01;8.80;;;3.90;;
61435;SDS011;47304;47.456;19.160;2023-06-01T06:07:27;13.80;;;4.30;;
61435;SDS011;47304;47.456;19.160;2023-06-01T06:09:54;9.90;;;4.40;;
61435;SDS011;47304;47.456;19.160;2023-06-01T06:12:20;13.10;;;4.70;;
61435;SDS011;47304;47.456;19.160;2023-06-01T06:14:47;13.50;;;6.80;;
61435;SDS011;47304;47.456;19.160;2023-06-01T06:17:14;13.80;;;4.50;;
61435;SDS011;47304;47.456;19.160;2023-06-01T06:19:41;10.60;;;3.90;;
61435;SDS011;47304;47.456;19.160;2023-06-01T06:22:07;13.30;;;4.00;;
61435;SDS011;47304;47.456;19.160;2023-06-01T06:24:34;9.40;;;3.80;;
61435;SDS011;47304;47.456;19.160;2023-06-01T06:27:01;10.10;;;3.30;;
61435;SDS011;47304;47.456;19.160;2023-06-01T06:29:27;9.60;;;3.50;;
61435;SDS011;47304;47.456;19.160;2023-06-01T06:31:55;9.70;;;3.60;;
61435;SDS011;47304;47.456;19.160;2023-06-01T06:34:21;9.80;;;3.50;;
61435;SDS011;47304;47.456;19.160;2023-06-01T06:36:48;9.30;;;3.40;;
61435;SDS011;47304;47.456;19.160;2023-06-01T06:39:14;7.20;;;2.80;;
61435;SDS011;47304;47.456;19.160;2023-06-01T06:41:41;13.30;;;3.60;;
61435;SDS011;47304;47.456;19.160;2023-06-01T06:44:08;7.80;;;3.30;;
61435;SDS011;47304;47.456;19.160;2023-06-01T06:46:34;7.00;;;2.90;;
61435;SDS011;47304;47.456;19.160;2023-06-01T06:49:01;8.00;;;3.40;;
61435;SDS011;47304;47.456;19.160;2023-06-01T06:51:28;9.40;;;3.50;;
61435;SDS011;47304;47.456;19.160;2023-06-01T06:53:54;7.80;;;3.00;;
61435;SDS011;47304;47.456;19.160;2023-06-01T06:56:21;7.20;;;3.00;;
61435;SDS011;47304;47.456;19.160;2023-06-01T06:58:47;8.30;;;3.20;;
61435;SDS011;47304;47.456;19.160;2023-06-01T07:01:28;12.00;;;4.00;;
61435;SDS011;47304;47.456;19.160;2023-06-01T07:03:55;6.80;;;2.90;;
61435;SDS011;47304;47.456;19.160;2023-06-01T07:06:22;9.40;;;3.00;;
61435;SDS011;47304;47.456;19.160;2023-06-01T07:08:48;10.40;;;3.10;;
61435;SDS011;47304;47.456;19.160;2023-06-01T07:11:15;7.60;;;2.90;;
61435;SDS011;47304;47.456;19.160;2023-06-01T07:13:42;8.00;;;3.20;;
61435;SDS011;47304;47.456;19.160;2023-06-01T07:16:09;8.00;;;2.80;;
61435;SDS011;47304;47.456;19.160;2023-06-01T07:18:35;8.10;;;3.20;;
61435;SDS011;47304;47.456;19.160;2023-06-01T07:21:02;7.30;;;3.10;;
61435;SDS011;47304;47.456;19.160;2023-06-01T07:23:29;8.30;;;3.20;;
61435;SDS011;47304;47.456;19.160;2023-06-01T07:25:55;8.00;;;3.50;;
61435;SDS011;47304;47.456;19.160;2023-06-01T07:28:22;8.90;;;3.50;;
61435;SDS011;47304;47.456;19.160;2023-06-01T07:30:48;9.20;;;3.80;;
61435;SDS011;47304;47.456;19.160;2023-06-01T07:33:15;7.60;;;3.10;;
61435;SDS011;47304;47.456;19.160;2023-06-01T07:35:41;8.10;;;3.20;;
61435;SDS011;47304;47.456;19.160;2023-06-01T07:38:08;8.30;;;3.60;;
61435;SDS011;47304;47.456;19.160;2023-06-01T07:40:35;8.10;;;3.30;;
61435;SDS011;47304;47.456;19.160;2023-06-01T07:43:01;12.00;;;3.10;;
61435;SDS011;47304;47.456;19.160;2023-06-01T07:45:28;11.50;;;3.40;;
61435;SDS011;47304;47.456;19.160;2023-06-01T07:47:54;9.20;;;3.20;;
61435;SDS011;47304;47.456;19.160;2023-06-01T07:50:21;8.90;;;3.50;;
61435;SDS011;47304;47.456;19.160;2023-06-01T07:52:47;8.10;;;3.20;;
61435;SDS011;47304;47.456;19.160;2023-06-01T07:55:14;9.40;;;3.20;;
61435;SDS011;47304;47.456;19.160;2023-06-01T07:57:41;7.60;;;2.70;;
61435;SDS011;47304;47.456;19.160;2023-06-01T08:00:07;8.70;;;3.20;;
61435;SDS011;47304;47.456;19.160;2023-06-01T08:02:34;12.50;;;3.50;;
61435;SDS011;47304;47.456;19.160;2023-06-01T08:05:01;14.90;;;3.10;;
61435;SDS011;47304;47.456;19.160;2023-06-01T08:07:28;9.10;;;3.20;;
61435;SDS011;47304;47.456;19.160;2023-06-01T08:09:54;7.40;;;3.00;;
61435;SDS011;47304;47.456;19.160;2023-06-01T08:12:22;12.20;;;3.50;;
61435;SDS011;47304;47.456;19.160;2023-06-01T08:14:48;7.40;;;3.00;;
61435;SDS011;47304;47.456;19.160;2023-06-01T08:17:15;8.60;;;3.40;;
61435;SDS011;47304;47.456;19.160;2023-06-01T08:19:41;7.00;;;2.90;;
61435;SDS011;47304;47.456;19.160;2023-06-01T08:22:08;15.90;;;3.40;;
61435;SDS011;47304;47.456;19.160;2023-06-01T08:24:35;9.30;;;3.40;;
61435;SDS011;47304;47.456;19.160;2023-06-01T08:27:01;9.10;;;3.30;;
61435;SDS011;47304;47.456;19.160;2023-06-01T08:29:28;9.00;;;3.30;;
61435;SDS011;47304;47.456;19.160;2023-06-01T08:32:07;9.70;;;3.20;;
61435;SDS011;47304;47.456;19.160;2023-06-01T08:34:35;8.90;;;3.40;;
61435;SDS011;47304;47.456;19.160;2023-06-01T08:37:01;8.50;;;3.40;;
61435;SDS011;47304;47.456;19.160;2023-06-01T08:39:28;8.70;;;2.90;;
61435;SDS011;47304;47.456;19.160;2023-06-01T08:42:06;12.90;;;3.20;;
61435;SDS011;47304;47.456;19.160;2023-06-01T08:44:41;9.30;;;3.60;;
61435;SDS011;47304;47.456;19.160;2023-06-01T08:47:08;7.50;;;3.40;;
61435;SDS011;47304;47.456;19.160;2023-06-01T08:49:35;8.60;;;3.40;;
61435;SDS011;47304;47.456;19.160;2023-06-01T08:52:06;8.10;;;3.00;;
61435;SDS011;47304;47.456;19.160;2023-06-01T08:54:34;8.90;;;3.30;;
61435;SDS011;47304;47.456;19.160;2023-06-01T08:57:03;7.40;;;3.50;;
61435;SDS011;47304;47.456;19.160;2023-06-01T08:59:31;8.60;;;3.30;;
61435;SDS011;47304;47.456;19.160;2023-06-01T09:01:58;11.20;;;3.60;;
61435;SDS011;47304;47.456;19.160;2023-06-01T09:04:25;7.20;;;3.40;;
61435;SDS011;47304;47.456;19.160;2023-06-01T09:06:52;10.40;;;3.30;;
61435;SDS011;47304;47.456;19.160;2023-06-01T09:09:19;7.50;;;3.30;;
61435;SDS011;47304;47.456;19.160;2023-06-01T09:11:46;8.50;;;3.30;;
61435;SDS011;47304;47.456;19.160;2023-06-01T09:14:19;7.20;;;3.20;;
61435;SDS011;47304;47.456;19.160;2023-06-01T09:16:49;8.30;;;3.20;;
61435;SDS011;47304;47.456;19.160;2023-06-01T09:19:18;9.60;;;4.10;;
61435;SDS011;47304;47.456;19.160;2023-06-01T09:21:54;9.10;;;3.50;;
61435;SDS011;47304;47.456;19.160;2023-06-01T09:24:22;10.30;;;3.20;;
61435;SDS011;47304;47.456;19.160;2023-06-01T09:26:48;9.20;;;3.40;;
61435;SDS011;47304;47.456;19.160;2023-06-01T09:29:15;9.80;;;3.50;;
61435;SDS011;47304;47.456;19.160;2023-06-01T09:34:11;8.30;;;3.40;;
61435;SDS011;47304;47.456;19.160;2023-06-01T09:36:39;7.50;;;3.30;;
61435;SDS011;47304;47.456;19.160;2023-06-01T09:39:06;9.50;;;3.60;;
61435;SDS011;47304;47.456;19.160;2023-06-01T09:44:11;7.80;;;3.30;;
61435;SDS011;47304;47.456;19.160;2023-06-01T09:46:48;7.10;;;3.40;;
61435;SDS011;47304;47.456;19.160;2023-06-01T09:49:19;8.80;;;3.30;;
61435;SDS011;47304;47.456;19.160;2023-06-01T09:51:46;10.60;;;4.10;;
61435;SDS011;47304;47.456;19.160;2023-06-01T09:54:23;8.30;;;3.30;;
61435;SDS011;47304;47.456;19.160;2023-06-01T09:56:52;8.30;;;3.80;;
61435;SDS011;47304;47.456;19.160;2023-06-01T09:59:40;7.60;;;3.40;;
61435;SDS011;47304;47.456;19.160;2023-06-01T10:02:17;10.00;;;3.80;;
61435;SDS011;47304;47.456;19.160;2023-06-01T10:04:48;9.10;;;4.10;;
61435;SDS011;47304;47.456;19.160;2023-06-01T10:07:15;8.70;;;4.10;;
61435;SDS011;47304;47.456;19.160;2023-06-01T10:09:43;7.70;;;3.70;;
61435;SDS011;47304;47.456;19.160;2023-06-01T10:12:14;10.20;;;4.00;;
61435;SDS011;47304;47.456;19.160;2023-06-01T10:14:41;7.70;;;3.80;;
61435;SDS011;47304;47.456;19.160;2023-06-01T10:17:07;8.60;;;4.30;;
61435;SDS011;47304;47.456;19.160;2023-06-01T10:19:35;10.30;;;4.60;;
61435;SDS011;47304;47.456;19.160;2023-06-01T10:22:03;9.90;;;4.60;;
61435;SDS011;47304;47.456;19.160;2023-06-01T10:24:30;8.70;;;3.60;;
61435;SDS011;47304;47.456;19.160;2023-06-01T10:27:00;11.70;;;3.60;;
61435;SDS011;47304;47.456;19.160;2023-06-01T10:29:33;9.30;;;3.90;;
61435;SDS011;47304;47.456;19.160;2023-06-01T10:32:01;7.00;;;3.30;;
61435;SDS011;47304;47.456;19.160;2023-06-01T10:34:40;8.80;;;3.60;;
61435;SDS011;47304;47.456;19.160;2023-06-01T10:39:35;8.80;;;3.90;;
61435;SDS011;47304;47.456;19.160;2023-06-01T10:52:30;16.00;;;4.40;;
61435;SDS011;47304;47.456;19.160;2023-06-01T10:57:33;8.00;;;3.90;;
61435;SDS011;47304;47.456;19.160;2023-06-01T11:02:52;13.10;;;4.40;;
61435;SDS011;47304;47.456;19.160;2023-06-01T11:05:36;8.20;;;3.80;;
61435;SDS011;47304;47.456;19.160;2023-06-01T11:13:37;10.50;;;4.00;;
61435;SDS011;47304;47.456;19.160;2023-06-01T11:21:22;9.30;;;3.80;;
61435;SDS011;47304;47.456;19.160;2023-06-01T11:23:49;8.70;;;3.70;;
61435;SDS011;47304;47.456;19.160;2023-06-01T11:26:17;9.30;;;3.90;;
61435;SDS011;47304;47.456;19.160;2023-06-01T11:28:45;7.40;;;4.00;;
61435;SDS011;47304;47.456;19.160;2023-06-01T11:31:16;10.40;;;4.50;;
61435;SDS011;47304;47.456;19.160;2023-06-01T11:33:50;9.00;;;3.80;;
61435;SDS011;47304;47.456;19.160;2023-06-01T11:36:21;7.70;;;3.80;;
61435;SDS011;47304;47.456;19.160;2023-06-01T11:41:15;11.60;;;4.60;;
61435;SDS011;47304;47.456;19.160;2023-06-01T11:43:42;11.20;;;4.30;;
61435;SDS011;47304;47.456;19.160;2023-06-01T11:46:08;8.80;;;4.20;;
61435;SDS011;47304;47.456;19.160;2023-06-01T11:49:03;8.30;;;4.40;;
61435;SDS011;47304;47.456;19.160;2023-06-01T11:51:33;9.70;;;4.50;;
61435;SDS011;47304;47.456;19.160;2023-06-01T11:54:04;8.60;;;4.20;;
61435;SDS011;47304;47.456;19.160;2023-06-01T11:56:38;9.00;;;3.90;;
61435;SDS011;47304;47.456;19.160;2023-06-01T11:59:05;7.70;;;4.10;;
61435;SDS011;47304;47.456;19.160;2023-06-01T12:01:32;10.80;;;4.30;;
61435;SDS011;47304;47.456;19.160;2023-06-01T12:03:58;12.50;;;6.90;;
61435;SDS011;47304;47.456;19.160;2023-06-01T12:06:25;9.80;;;4.20;;
61435;SDS011;47304;47.456;19.160;2023-06-01T12:08:52;10.60;;;4.50;;
61435;SDS011;47304;47.456;19.160;2023-06-01T12:11:22;8.20;;;3.80;;
61435;SDS011;47304;47.456;19.160;2023-06-01T12:13:51;8.00;;;4.20;;
61435;SDS011;47304;47.456;19.160;2023-06-01T12:16:18;9.40;;;4.40;;
61435;SDS011;47304;47.456;19.160;2023-06-01T12:18:47;7.30;;;3.70;;
61435;SDS011;47304;47.456;19.160;2023-06-01T12:21:15;8.70;;;3.60;;
61435;SDS011;47304;47.456;19.160;2023-06-01T12:23:42;9.60;;;4.60;;
61435;SDS011;47304;47.456;19.160;2023-06-01T12:26:15;10.70;;;4.50;;
61435;SDS011;47304;47.456;19.160;2023-06-01T12:28:51;8.30;;;4.10;;
61435;SDS011;47304;47.456;19.160;2023-06-01T12:31:25;10.50;;;4.70;;
61435;SDS011;47304;47.456;19.160;2023-06-01T12:33:51;9.30;;;4.40;;
61435;SDS011;47304;47.456;19.160;2023-06-01T12:36:28;9.10;;;4.30;;
61435;SDS011;47304;47.456;19.160;2023-06-01T12:38:55;11.70;;;4.30;;
61435;SDS011;47304;47.456;19.160;2023-06-01T12:41:22;12.80;;;4.50;;
61435;SDS011;47304;47.456;19.160;2023-06-01T12:43:49;8.40;;;4.00;;
61435;SDS011;47304;47.456;19.160;2023-06-01T12:46:20;8.10;;;4.30;;
61435;SDS011;47304;47.456;19.160;2023-06-01T12:48:47;13.50;;;4.90;;
61435;SDS011;47304;47.456;19.160;2023-06-01T12:51:14;9.10;;;4.20;;
61435;SDS011;47304;47.456;19.160;2023-06-01T12:53:42;10.30;;;4.40;;
61435;SDS011;47304;47.456;19.160;2023-06-01T12:56:09;9.10;;;4.30;;
61435;SDS011;47304;47.456;19.160;2023-06-01T12:58:37;7.90;;;4.30;;
61435;SDS011;47304;47.456;19.160;2023-06-01T13:01:03;7.80;;;4.00;;
61435;SDS011;47304;47.456;19.160;2023-06-01T13:03:30;9.00;;;4.20;;
61435;SDS011;47304;47.456;19.160;2023-06-01T13:05:57;8.20;;;4.30;;
61435;SDS011;47304;47.456;19.160;2023-06-01T13:08:23;9.30;;;4.20;;
61435;SDS011;47304;47.456;19.160;2023-06-01T13:10:50;8.20;;;3.90;;
61435;SDS011;47304;47.456;19.160;2023-06-01T13:13:17;10.20;;;4.30;;
61435;SDS011;47304;47.456;19.160;2023-06-01T13:15:44;10.00;;;4.20;;
61435;SDS011;47304;47.456;19.160;2023-06-01T13:18:11;10.20;;;4.70;;
61435;SDS011;47304;47.456;19.160;2023-06-01T13:20:39;10.20;;;4.40;;
61435;SDS011;47304;47.456;19.160;2023-06-01T13:23:06;9.70;;;4.60;;
61435;SDS011;47304;47.456;19.160;2023-06-01T13:25:32;7.60;;;3.90;;
61435;SDS011;47304;47.456;19.160;2023-06-01T13:27:59;12.60;;;4.30;;
61435;SDS011;47304;47.456;19.160;2023-06-01T13:30:27;10.00;;;4.40;;
61435;SDS011;47304;47.456;19.160;2023-06-01T13:32:55;10.30;;;4.30;;
61435;SDS011;47304;47.456;19.160;2023-06-01T13:35:23;10.10;;;4.90;;
61435;SDS011;47304;47.456;19.160;2023-06-01T13:37:49;9.60;;;4.20;;
61435;SDS011;47304;47.456;19.160;2023-06-01T13:40:16;10.30;;;4.10;;
61435;SDS011;47304;47.456;19.160;2023-06-01T13:42:43;8.90;;;4.10;;
61435;SDS011;47304;47.456;19.160;2023-06-01T13:45:09;9.10;;;4.30;;
61435;SDS011;47304;47.456;19.160;2023-06-01T13:47:37;10.70;;;4.30;;
61435;SDS011;47304;47.456;19.160;2023-06-01T13:50:03;8.80;;;4.20;;
61435;SDS011;47304;47.456;19.160;2023-06-01T13:52:30;8.00;;;4.10;;
61435;SDS011;47304;47.456;19.160;2023-06-01T13:54:57;9.40;;;3.90;;
61435;SDS011;47304;47.456;19.160;2023-06-01T13:57:23;8.10;;;4.30;;
61435;SDS011;47304;47.456;19.160;2023-06-01T13:59:50;9.70;;;4.00;;
61435;SDS011;47304;47.456;19.160;2023-06-01T14:02:17;7.70;;;4.00;;
61435;SDS011;47304;47.456;19.160;2023-06-01T14:04:43;8.70;;;4.10;;
61435;SDS011;47304;47.456;19.160;2023-06-01T14:07:12;9.80;;;4.30;;
61435;SDS011;47304;47.456;19.160;2023-06-01T14:09:39;9.20;;;4.70;;
61435;SDS011;47304;47.456;19.160;2023-06-01T14:12:05;9.90;;;4.20;;
61435;SDS011;47304;47.456;19.160;2023-06-01T14:14:32;9.50;;;4.20;;
61435;SDS011;47304;47.456;19.160;2023-06-01T14:16:59;8.60;;;4.20;;
61435;SDS011;47304;47.456;19.160;2023-06-01T14:19:25;9.50;;;4.20;;
61435;SDS011;47304;47.456;19.160;2023-06-01T14:21:52;9.30;;;3.60;;
61435;SDS011;47304;47.456;19.160;2023-06-01T14:24:19;8.40;;;4.10;;
61435;SDS011;47304;47.456;19.160;2023-06-01T14:26:46;8.40;;;4.40;;
61435;SDS011;47304;47.456;19.160;2023-06-01T14:29:12;7.40;;;4.10;;
61435;SDS011;47304;47.456;19.160;2023-06-01T14:31:39;7.60;;;3.90;;
61435;SDS011;47304;47.456;19.160;2023-06-01T14:34:05;9.40;;;4.20;;
61435;SDS011;47304;47.456;19.160;2023-06-01T14:36:32;8.80;;;4.30;;
61435;SDS011;47304;47.456;19.160;2023-06-01T14:39:12;10.80;;;4.20;;
61435;SDS011;47304;47.456;19.160;2023-06-01T14:41:38;8.80;;;4.30;;
61435;SDS011;47304;47.456;19.160;2023-06-01T14:44:10;10.70;;;4.60;;
61435;SDS011;47304;47.456;19.160;2023-06-01T14:46:38;8.80;;;3.90;;
61435;SDS011;47304;47.456;19.160;2023-06-01T14:49:04;9.30;;;4.10;;
61435;SDS011;47304;47.456;19.160;2023-06-01T14:51:31;8.40;;;3.90;;
61435;SDS011;47304;47.456;19.160;2023-06-01T14:53:57;8.50;;;4.40;;
61435;SDS011;47304;47.456;19.160;2023-06-01T14:56:24;9.00;;;4.40;;
61435;SDS011;47304;47.456;19.160;2023-06-01T14:58:51;11.60;;;4.20;;
61435;SDS011;47304;47.456;19.160;2023-06-01T15:01:18;7.50;;;3.80;;
61435;SDS011;47304;47.456;19.160;2023-06-01T15:03:45;9.30;;;4.50;;
61435;SDS011;47304;47.456;19.160;2023-06-01T15:06:12;8.40;;;4.20;;
61435;SDS011;47304;47.456;19.160;2023-06-01T15:08:39;11.70;;;4.50;;
61435;SDS011;47304;47.456;19.160;2023-06-01T15:11:05;9.20;;;4.10;;
61435;SDS011;47304;47.456;19.160;2023-06-01T15:13:32;10.80;;;4.20;;
61435;SDS011;47304;47.456;19.160;2023-06-01T15:15:58;9.70;;;5.00;;
61435;SDS011;47304;47.456;19.160;2023-06-01T15:18:25;9.80;;;4.40;;